createdAt,value
2022-12-08T00:02:05.954Z,9.25
2022-12-08T00:04:32.368Z,8.45
2022-12-08T00:06:58.534Z,9.88
2022-12-08T00:09:24.782Z,9.48
2022-12-08T00:11:50.981Z,8.75
2022-12-08T00:14:17.152Z,9.55
2022-12-08T00:16:44.584Z,6.95
2022-12-08T00:19:10.801Z,7.93
2022-12-08T00:21:36.989Z,10.02
2022-12-08T00:24:03.245Z,9.70
2022-12-08T00:26:29.439Z,10.35
2022-12-08T00:29:01.161Z,8.82
2022-12-08T00:31:27.412Z,9.40
2022-12-08T00:33:53.618Z,9.38
2022-12-08T00:36:19.847Z,9.68
2022-12-08T00:38:47.979Z,10.88
2022-12-08T00:41:14.110Z,8.88
2022-12-08T00:43:40.282Z,6.63
2022-12-08T00:46:06.596Z,8.90
2022-12-08T00:48:32.817Z,9.43
2022-12-08T00:50:59.020Z,8.40
2022-12-08T00:53:25.175Z,10.15
2022-12-08T00:55:51.439Z,8.77
2022-12-08T00:58:17.629Z,8.63
2022-12-08T01:00:43.876Z,8.88
2022-12-08T01:03:10.200Z,8.63
2022-12-08T01:05:36.474Z,8.68
2022-12-08T01:08:02.677Z,9.18
2022-12-08T01:10:28.895Z,8.48
2022-12-08T01:12:55.046Z,8.32
2022-12-08T01:15:21.276Z,9.43
2022-12-08T01:17:47.417Z,8.25
2022-12-08T01:20:13.567Z,8.65
2022-12-08T01:22:39.728Z,9.05
2022-12-08T01:25:06.186Z,8.68
2022-12-08T01:27:32.302Z,9.15
2022-12-08T01:29:58.466Z,8.60
2022-12-08T01:32:24.625Z,9.75
2022-12-08T01:34:50.837Z,8.77
2022-12-08T01:37:17.034Z,9.68
2022-12-08T01:39:43.256Z,7.93
2022-12-08T01:42:09.405Z,7.85
2022-12-08T01:44:35.530Z,5.80
2022-12-08T01:47:01.701Z,7.50
2022-12-08T01:49:27.919Z,8.48
2022-12-08T01:51:54.056Z,6.65
2022-12-08T01:54:20.190Z,8.30
2022-12-08T01:56:46.361Z,8.57
2022-12-08T01:59:12.547Z,8.45
2022-12-08T02:01:38.790Z,9.10
2022-12-08T02:04:05.086Z,8.48
2022-12-08T02:06:31.275Z,8.93
2022-12-08T02:08:57.450Z,8.38
2022-12-08T02:11:23.695Z,8.30
2022-12-08T02:13:49.854Z,7.40
2022-12-08T02:16:16.091Z,6.22
2022-12-08T02:18:42.359Z,6.43
2022-12-08T02:21:08.481Z,8.60
2022-12-08T02:23:34.705Z,6.60
2022-12-08T02:26:00.851Z,7.40
2022-12-08T02:28:26.964Z,7.57
2022-12-08T02:30:53.174Z,8.15
2022-12-08T02:33:19.429Z,9.20
2022-12-08T02:35:45.629Z,7.95
2022-12-08T02:38:11.785Z,8.50
2022-12-08T02:40:37.953Z,8.70
2022-12-08T02:43:04.108Z,8.70
2022-12-08T02:45:30.248Z,9.23
2022-12-08T02:47:56.414Z,9.38
2022-12-08T02:50:22.620Z,8.23
2022-12-08T02:52:48.789Z,9.18
2022-12-08T02:55:14.964Z,8.88
2022-12-08T02:57:41.137Z,7.97
2022-12-08T03:00:07.669Z,9.85
2022-12-08T03:02:34.141Z,9.10
2022-12-08T03:05:00.478Z,9.43
2022-12-08T03:07:26.668Z,9.40
2022-12-08T03:09:52.845Z,8.77
2022-12-08T03:12:19.035Z,9.38
2022-12-08T03:14:45.202Z,8.85
2022-12-08T03:17:11.388Z,8.50
2022-12-08T03:19:37.576Z,8.30
2022-12-08T03:22:03.765Z,8.90
2022-12-08T03:24:29.901Z,9.95
2022-12-08T03:26:56.065Z,8.57
2022-12-08T03:29:22.261Z,8.93
2022-12-08T03:31:48.426Z,8.80
2022-12-08T03:34:14.552Z,8.93
2022-12-08T03:36:40.717Z,9.85
2022-12-08T03:39:06.925Z,8.95
2022-12-08T03:41:33.143Z,8.43
2022-12-08T03:43:59.315Z,7.93
2022-12-08T03:48:50.577Z,8.50
2022-12-08T03:51:16.753Z,10.40
2022-12-08T03:53:42.952Z,10.43
2022-12-08T03:56:09.153Z,9.52
2022-12-08T03:58:37.602Z,8.40
2022-12-08T04:01:03.878Z,8.80
2022-12-08T04:03:30.028Z,9.07
2022-12-08T04:05:56.216Z,9.88
2022-12-08T04:08:22.443Z,9.55
2022-12-08T04:10:48.613Z,10.30
2022-12-08T04:13:14.740Z,9.63
2022-12-08T04:15:40.964Z,9.43
2022-12-08T04:18:07.150Z,10.90
2022-12-08T04:20:33.310Z,10.23
2022-12-08T04:22:59.533Z,9.77
2022-12-08T04:25:25.917Z,10.10
2022-12-08T04:27:52.097Z,9.32
2022-12-08T04:30:18.302Z,10.63
2022-12-08T04:32:47.517Z,9.93
2022-12-08T04:35:13.966Z,9.10
2022-12-08T04:37:40.111Z,9.98
2022-12-08T04:40:06.557Z,10.57
2022-12-08T04:42:32.941Z,10.23
2022-12-08T04:44:59.141Z,10.40
2022-12-08T04:47:25.297Z,10.00
2022-12-08T04:49:51.499Z,9.80
2022-12-08T04:52:17.751Z,11.07
2022-12-08T04:54:43.885Z,11.18
2022-12-08T04:57:10.113Z,9.18
2022-12-08T04:59:36.233Z,10.05
2022-12-08T05:02:02.552Z,10.57
2022-12-08T05:04:28.898Z,8.20
2022-12-08T05:06:55.019Z,9.75
2022-12-08T05:09:21.160Z,6.88
2022-12-08T05:11:49.186Z,7.10
2022-12-08T05:14:15.551Z,6.95
2022-12-08T05:16:41.725Z,7.80
2022-12-08T05:19:07.997Z,7.07
2022-12-08T05:21:34.159Z,7.20
2022-12-08T05:24:00.422Z,8.98
2022-12-08T05:26:26.571Z,8.77
2022-12-08T05:28:52.684Z,7.45
2022-12-08T05:31:18.922Z,9.38
2022-12-08T05:33:45.161Z,8.50
2022-12-08T05:36:11.273Z,8.32
2022-12-08T05:38:37.419Z,9.13
2022-12-08T05:41:03.534Z,8.48
2022-12-08T05:43:29.717Z,8.05
2022-12-08T05:45:56.047Z,6.82
2022-12-08T05:48:22.269Z,8.77
2022-12-08T05:50:48.427Z,8.95
2022-12-08T05:53:14.546Z,8.57
2022-12-08T05:55:40.743Z,8.48
2022-12-08T05:58:08.104Z,9.30
2022-12-08T06:00:34.373Z,8.80
2022-12-08T06:03:00.631Z,8.65
2022-12-08T06:05:26.899Z,7.50
2022-12-08T06:07:53.081Z,8.02
2022-12-08T06:10:19.240Z,8.48
2022-12-08T06:12:45.442Z,9.00
2022-12-08T06:15:11.656Z,8.80
2022-12-08T06:17:37.775Z,8.75
2022-12-08T06:20:04.212Z,8.90
2022-12-08T06:22:30.680Z,8.38
2022-12-08T06:24:56.842Z,9.40
2022-12-08T06:27:23.032Z,8.88
2022-12-08T06:29:49.184Z,8.73
2022-12-08T06:32:15.446Z,7.88
2022-12-08T06:34:41.637Z,8.93
2022-12-08T06:37:07.824Z,8.85
2022-12-08T06:39:34.009Z,8.95
2022-12-08T06:42:00.196Z,7.10
2022-12-08T06:44:27.604Z,8.77
2022-12-08T06:46:53.845Z,8.63
2022-12-08T06:49:20.119Z,8.80
2022-12-08T06:51:53.376Z,9.82
2022-12-08T06:54:22.817Z,9.55
2022-12-08T06:56:49.051Z,10.77
2022-12-08T06:59:15.312Z,8.93
2022-12-08T07:01:41.603Z,10.18
2022-12-08T07:04:07.805Z,10.63
2022-12-08T07:06:33.945Z,9.20
2022-12-08T07:09:00.157Z,11.27
2022-12-08T07:11:26.290Z,9.98
2022-12-08T07:13:52.494Z,9.73
2022-12-08T07:16:18.705Z,9.23
2022-12-08T07:18:44.924Z,10.23
2022-12-08T07:21:11.060Z,11.27
2022-12-08T07:23:37.227Z,9.82
2022-12-08T07:26:03.970Z,10.35
2022-12-08T07:28:30.201Z,10.55
2022-12-08T07:30:56.400Z,10.13
2022-12-08T07:33:22.654Z,10.52
2022-12-08T07:35:49.461Z,9.95
2022-12-08T07:38:15.718Z,9.35
2022-12-08T07:40:41.866Z,11.07
2022-12-08T07:43:08.032Z,12.02
2022-12-08T07:45:34.227Z,10.32
2022-12-08T07:48:00.429Z,10.95
2022-12-08T07:50:26.620Z,10.02
2022-12-08T07:52:52.846Z,12.00
2022-12-08T07:55:19.084Z,9.93
2022-12-08T07:57:45.269Z,11.20
2022-12-08T08:00:12.867Z,10.85
2022-12-08T08:02:39.169Z,11.13
2022-12-08T08:05:05.606Z,10.93
2022-12-08T08:07:31.844Z,10.20
2022-12-08T08:09:58.056Z,10.15
2022-12-08T08:12:32.602Z,8.52
2022-12-08T08:14:59.020Z,10.80
2022-12-08T08:17:25.333Z,8.52
2022-12-08T08:19:51.599Z,8.75
2022-12-08T08:22:17.762Z,10.15
2022-12-08T08:24:45.248Z,9.75
2022-12-08T08:27:11.547Z,10.10
2022-12-08T08:29:37.739Z,9.45
2022-12-08T08:32:03.886Z,10.77
2022-12-08T08:34:30.064Z,10.07
2022-12-08T08:36:56.274Z,8.88
2022-12-08T08:39:22.427Z,8.35
2022-12-08T08:41:48.618Z,7.80
2022-12-08T08:44:14.830Z,6.28
2022-12-08T08:46:41.198Z,9.82
2022-12-08T08:49:07.446Z,6.70
2022-12-08T08:51:33.666Z,8.48
2022-12-08T08:53:59.874Z,9.95
2022-12-08T08:56:26.101Z,8.55
2022-12-08T08:58:52.281Z,8.65
2022-12-08T09:01:18.518Z,9.48
2022-12-08T09:03:44.824Z,8.02
2022-12-08T09:06:10.976Z,9.00
2022-12-08T09:08:37.165Z,9.30
2022-12-08T09:11:03.346Z,9.50
2022-12-08T09:13:29.482Z,7.28
2022-12-08T09:15:55.757Z,8.20
2022-12-08T09:18:22.030Z,8.57
2022-12-08T09:20:48.229Z,7.75
2022-12-08T09:23:14.406Z,7.63
2022-12-08T09:25:40.591Z,8.20
2022-12-08T09:28:06.758Z,7.72
2022-12-08T09:30:32.953Z,6.90
2022-12-08T09:32:59.108Z,6.75
2022-12-08T09:35:25.229Z,6.93
2022-12-08T09:37:51.391Z,7.28
2022-12-08T09:40:17.569Z,8.48
2022-12-08T09:42:43.884Z,6.88
2022-12-08T09:45:10.075Z,7.63
2022-12-08T09:47:36.576Z,6.95
2022-12-08T09:50:03.566Z,7.63
2022-12-08T09:52:30.024Z,6.60
2022-12-08T09:54:56.207Z,8.32
2022-12-08T09:57:22.403Z,7.70
2022-12-08T09:59:48.539Z,8.57
2022-12-08T10:02:14.807Z,8.23
2022-12-08T10:04:41.101Z,7.32
2022-12-08T10:07:07.350Z,7.30
2022-12-08T10:09:33.558Z,8.40
2022-12-08T10:11:59.764Z,8.52
2022-12-08T10:14:26.057Z,8.52
2022-12-08T10:16:52.296Z,7.75
2022-12-08T10:19:18.526Z,7.80
2022-12-08T10:21:44.682Z,7.68
2022-12-08T10:24:10.828Z,7.35
2022-12-08T10:26:36.963Z,7.95
2022-12-08T10:29:03.903Z,5.85
2022-12-08T10:31:30.157Z,7.75
2022-12-08T10:33:56.360Z,8.52
2022-12-08T10:36:22.566Z,7.10
2022-12-08T10:38:48.687Z,7.63
2022-12-08T10:41:14.895Z,6.88
2022-12-08T10:43:41.045Z,8.65
2022-12-08T10:46:07.313Z,7.97
2022-12-08T10:48:33.582Z,8.13
2022-12-08T10:50:59.711Z,8.63
2022-12-08T10:53:25.881Z,7.25
2022-12-08T10:55:52.026Z,7.75
2022-12-08T10:58:18.279Z,10.35
2022-12-08T11:00:44.500Z,7.15
2022-12-08T11:03:10.771Z,8.15
2022-12-08T11:05:36.958Z,6.25
2022-12-08T11:08:03.205Z,7.20
2022-12-08T11:10:29.427Z,7.63
2022-12-08T11:12:55.618Z,5.43
2022-12-08T11:15:21.749Z,6.35
2022-12-08T11:17:49.359Z,6.15
2022-12-08T11:20:17.284Z,4.95
2022-12-08T11:22:43.550Z,6.60
2022-12-08T11:25:09.677Z,6.53
2022-12-08T11:27:35.908Z,5.32
2022-12-08T11:30:02.370Z,5.72
2022-12-08T11:32:28.809Z,6.68
2022-12-08T11:34:55.015Z,5.60
2022-12-08T11:37:21.256Z,6.13
2022-12-08T11:39:47.389Z,6.18
2022-12-08T11:42:13.524Z,5.70
2022-12-08T11:44:39.720Z,5.53
2022-12-08T11:47:05.884Z,4.55
2022-12-08T11:49:32.003Z,5.18
2022-12-08T11:51:58.140Z,5.68
2022-12-08T11:54:24.312Z,6.32
2022-12-08T11:56:50.526Z,5.88
2022-12-08T11:59:16.667Z,5.82
2022-12-08T12:01:42.959Z,6.25
2022-12-08T12:04:09.156Z,5.57
2022-12-08T12:06:53.706Z,4.90
2022-12-08T12:09:21.150Z,5.22
2022-12-08T12:11:47.336Z,5.00
2022-12-08T12:14:13.485Z,4.90
2022-12-08T12:16:39.701Z,5.22
2022-12-08T12:19:05.878Z,5.80
2022-12-08T12:21:32.034Z,5.38
2022-12-08T12:23:58.219Z,4.78
2022-12-08T12:26:24.430Z,4.95
2022-12-08T12:28:50.561Z,6.03
2022-12-08T12:31:16.798Z,5.50
2022-12-08T12:33:43.057Z,5.90
2022-12-08T12:36:09.255Z,5.65
2022-12-08T13:00:41.641Z,7.47
2022-12-08T13:03:07.937Z,7.43
2022-12-08T13:05:34.123Z,6.82
2022-12-08T13:08:00.353Z,6.40
2022-12-08T13:10:26.560Z,5.90
2022-12-08T13:12:52.697Z,7.18
2022-12-08T13:15:18.880Z,6.43
2022-12-08T13:17:45.066Z,6.65
2022-12-08T13:20:11.618Z,6.18
2022-12-08T13:22:37.805Z,5.28
2022-12-08T13:25:04.038Z,6.07
2022-12-08T13:27:30.232Z,7.22
2022-12-08T13:29:56.405Z,4.97
2022-12-08T13:32:22.563Z,6.50
2022-12-08T13:34:48.683Z,6.38
2022-12-08T13:37:14.978Z,7.13
2022-12-08T13:39:41.145Z,5.40
2022-12-08T13:42:07.343Z,7.22
2022-12-08T13:47:35.320Z,5.20
2022-12-08T13:58:20.510Z,5.13
2022-12-08T14:00:46.696Z,6.43
2022-12-08T14:03:12.982Z,6.90
2022-12-08T14:06:10.507Z,6.50
2022-12-08T14:08:51.044Z,6.35
2022-12-08T14:11:11.422Z,6.63
2022-12-08T14:13:37.571Z,6.35
2022-12-08T14:16:03.747Z,6.05
2022-12-08T14:18:29.920Z,6.95
2022-12-08T14:21:19.856Z,6.18
2022-12-08T14:23:42.222Z,6.63
2022-12-08T14:26:08.349Z,6.30
2022-12-08T14:28:35.504Z,6.25
2022-12-08T14:31:04.002Z,6.60
2022-12-08T14:33:30.240Z,6.03
2022-12-08T14:35:56.377Z,6.75
2022-12-08T14:38:22.576Z,5.97
2022-12-08T14:40:48.815Z,5.53
2022-12-08T14:43:14.987Z,6.00
2022-12-08T14:45:41.153Z,5.95
2022-12-08T14:48:07.467Z,8.02
2022-12-08T14:50:33.696Z,6.43
2022-12-08T14:52:59.907Z,6.60
2022-12-08T14:55:26.099Z,6.57
2022-12-08T14:57:52.284Z,6.20
2022-12-08T15:00:18.443Z,6.20
2022-12-08T15:02:44.566Z,6.85
2022-12-08T15:05:10.811Z,6.60
2022-12-08T15:07:37.099Z,6.90
2022-12-08T15:10:03.544Z,7.07
2022-12-08T15:12:29.945Z,6.45
2022-12-08T15:14:56.145Z,5.63
2022-12-08T15:17:22.297Z,6.13
2022-12-08T15:19:48.437Z,6.13
2022-12-08T15:22:14.679Z,6.18
2022-12-08T15:24:40.854Z,6.10
2022-12-08T15:27:06.983Z,5.97
2022-12-08T15:29:33.173Z,6.65
2022-12-08T15:31:59.300Z,6.47
2022-12-08T15:34:25.490Z,6.35
2022-12-08T15:36:51.657Z,6.07
2022-12-08T15:39:17.862Z,5.97
2022-12-08T15:41:44.011Z,6.22
2022-12-08T15:44:10.225Z,6.10
2022-12-08T15:46:36.474Z,6.53
2022-12-08T15:49:02.707Z,7.18
2022-12-08T15:51:28.904Z,7.28
2022-12-08T15:53:55.034Z,7.68
2022-12-08T15:56:28.737Z,7.07
2022-12-08T15:58:57.026Z,7.43
2022-12-08T16:01:24.113Z,6.53
2022-12-08T16:09:26.386Z,6.10
2022-12-08T16:12:09.948Z,7.22
2022-12-08T16:17:22.733Z,7.55
2022-12-08T16:19:48.919Z,7.45
2022-12-08T16:22:52.376Z,7.97
2022-12-08T16:25:14.679Z,7.32
2022-12-08T16:28:01.172Z,7.82
2022-12-08T16:30:29.577Z,7.57
2022-12-08T16:32:55.703Z,8.43
2022-12-08T16:35:21.884Z,7.82
2022-12-08T16:37:48.045Z,7.22
2022-12-08T16:40:14.210Z,7.45
2022-12-08T16:42:40.381Z,7.53
2022-12-08T16:45:06.869Z,6.60
2022-12-08T16:47:33.193Z,7.45
2022-12-08T16:49:59.709Z,8.15
2022-12-08T16:52:25.850Z,8.38
2022-12-08T16:54:52.031Z,7.53
2022-12-08T16:57:18.243Z,8.15
2022-12-08T16:59:44.400Z,7.80
2022-12-08T17:02:16.180Z,9.18
2022-12-08T17:04:42.708Z,9.23
2022-12-08T17:07:08.955Z,8.98
2022-12-08T17:09:35.083Z,7.32
2022-12-08T17:12:04.043Z,8.85
2022-12-08T17:14:30.498Z,8.25
2022-12-08T17:16:56.737Z,8.43
2022-12-08T17:19:22.922Z,8.15
2022-12-08T17:21:49.064Z,8.63
2022-12-08T17:24:20.200Z,9.73
2022-12-08T17:26:47.904Z,12.32
2022-12-08T17:29:14.090Z,11.35
2022-12-08T17:31:40.274Z,10.00
2022-12-08T17:34:06.431Z,9.00
2022-12-08T17:36:32.637Z,10.50
2022-12-08T17:38:58.825Z,11.00
2022-12-08T17:41:25.008Z,10.10
2022-12-08T17:43:51.163Z,9.43
2022-12-08T17:46:17.385Z,9.88
2022-12-08T17:48:43.588Z,9.10
2022-12-08T17:51:09.733Z,9.85
2022-12-08T17:53:37.491Z,8.55
2022-12-08T17:56:03.880Z,9.32
2022-12-08T17:58:30.105Z,8.82
2022-12-08T18:00:56.289Z,9.25
2022-12-08T18:03:22.539Z,7.78
2022-12-08T18:05:48.701Z,7.25
2022-12-08T18:08:14.961Z,8.38
2022-12-08T18:10:41.298Z,8.10
2022-12-08T18:13:07.512Z,8.50
2022-12-08T18:15:37.572Z,9.02
2022-12-08T18:18:05.411Z,8.30
2022-12-08T18:20:31.533Z,7.93
2022-12-08T18:22:57.698Z,7.30
2022-12-08T18:25:23.930Z,8.00
2022-12-08T18:27:50.097Z,9.10
2022-12-08T18:30:16.221Z,8.63
2022-12-08T18:32:42.342Z,8.27
2022-12-08T18:35:08.470Z,8.77
2022-12-08T18:37:34.600Z,8.80
2022-12-08T18:40:00.749Z,8.68
2022-12-08T18:42:26.933Z,8.88
2022-12-08T18:44:53.060Z,8.88
2022-12-08T18:47:19.266Z,7.55
2022-12-08T18:49:45.417Z,7.63
2022-12-08T18:52:11.592Z,7.55
2022-12-08T18:55:04.767Z,8.65
2022-12-08T18:57:23.939Z,7.82
2022-12-08T18:59:50.073Z,8.75
2022-12-08T19:02:16.319Z,8.15
2022-12-08T19:04:42.539Z,8.57
2022-12-08T19:07:08.720Z,9.13
2022-12-08T19:09:34.890Z,8.57
2022-12-08T19:12:01.073Z,9.32
2022-12-08T19:14:28.565Z,9.05
2022-12-08T19:16:54.995Z,9.15
2022-12-08T19:19:21.178Z,11.95
2022-12-08T19:21:47.290Z,9.20
2022-12-08T19:24:13.476Z,9.13
2022-12-08T19:26:39.634Z,9.52
2022-12-08T19:29:05.797Z,10.93
2022-12-08T19:31:32.068Z,11.05
2022-12-08T19:33:58.324Z,11.38
2022-12-08T19:36:24.541Z,10.07
2022-12-08T19:38:50.680Z,10.45
2022-12-08T19:41:16.791Z,10.00
2022-12-08T19:43:43.003Z,9.93
2022-12-08T19:46:09.221Z,8.88
2022-12-08T19:48:35.526Z,9.07
2022-12-08T19:51:01.677Z,9.35
2022-12-08T19:53:27.789Z,11.50
2022-12-08T19:55:54.025Z,10.45
2022-12-08T19:58:20.197Z,9.55
2022-12-08T20:00:46.382Z,9.50
2022-12-08T20:03:12.567Z,8.70
2022-12-08T20:05:38.739Z,9.02
2022-12-08T20:08:05.063Z,7.47
2022-12-08T20:10:31.311Z,7.15
2022-12-08T20:12:57.550Z,8.10
2022-12-08T20:15:23.774Z,7.85
2022-12-08T20:17:50.016Z,8.15
2022-12-08T20:20:16.237Z,8.27
2022-12-08T20:22:42.441Z,8.95
2022-12-08T20:25:12.758Z,9.45
2022-12-08T20:27:39.572Z,9.75
2022-12-08T20:30:05.784Z,10.35
2022-12-08T20:32:31.950Z,9.10
2022-12-08T20:34:58.091Z,9.27
2022-12-08T20:37:24.271Z,11.15
2022-12-08T20:39:50.473Z,13.15
2022-12-08T20:42:16.635Z,14.15
2022-12-08T20:44:42.799Z,11.57
2022-12-08T20:47:09.048Z,11.48
2022-12-08T20:49:35.340Z,11.63
2022-12-08T20:52:01.500Z,14.50
2022-12-08T20:54:28.067Z,13.63
2022-12-08T20:56:54.458Z,12.25
2022-12-08T20:59:20.811Z,12.95
2022-12-08T21:01:47.224Z,10.77
2022-12-08T21:04:13.645Z,12.18
2022-12-08T21:06:39.984Z,13.90
2022-12-08T21:09:06.340Z,14.63
2022-12-08T21:11:32.920Z,12.65
2022-12-08T21:13:59.149Z,13.98
2022-12-08T21:16:25.523Z,12.88
2022-12-08T21:18:51.748Z,14.75
2022-12-08T21:21:17.966Z,12.82
2022-12-08T21:23:44.183Z,10.95
2022-12-08T21:26:10.475Z,10.38
2022-12-08T21:28:36.760Z,10.00
2022-12-08T21:31:03.084Z,10.57
2022-12-08T21:33:29.436Z,9.65
2022-12-08T21:35:55.982Z,9.38
2022-12-08T21:38:22.211Z,10.10
2022-12-08T21:40:48.560Z,9.20
2022-12-08T21:43:14.901Z,9.93
2022-12-08T21:45:41.197Z,10.15
2022-12-08T21:48:11.422Z,10.02
2022-12-08T21:50:38.335Z,9.82
2022-12-08T21:53:04.594Z,9.60
2022-12-08T21:55:30.754Z,9.85
2022-12-08T21:57:56.958Z,10.63
2022-12-08T22:00:23.678Z,10.80
2022-12-08T22:02:50.163Z,9.10
2022-12-08T22:05:16.452Z,8.95
2022-12-08T22:07:42.740Z,9.07
2022-12-08T22:10:09.778Z,9.63
2022-12-08T22:12:36.463Z,8.88
2022-12-08T22:15:02.816Z,9.50
2022-12-08T22:17:29.099Z,10.60
2022-12-08T22:19:55.703Z,9.68
2022-12-08T22:22:21.921Z,8.60
2022-12-08T22:24:48.027Z,10.40
2022-12-08T22:27:14.307Z,9.80
2022-12-08T22:29:40.634Z,9.23
2022-12-08T22:32:06.809Z,9.68
2022-12-08T22:34:33.206Z,10.00
2022-12-08T22:36:59.353Z,8.48
2022-12-08T22:39:25.474Z,9.75
2022-12-08T22:41:51.597Z,8.82
2022-12-08T22:44:17.703Z,9.35
2022-12-08T22:46:44.076Z,8.32
2022-12-08T22:49:10.223Z,9.18
2022-12-08T22:51:36.374Z,9.60
2022-12-08T22:54:02.507Z,8.63
2022-12-08T22:56:28.606Z,9.98
2022-12-08T22:58:54.790Z,8.27
2022-12-08T23:01:21.004Z,8.88
2022-12-08T23:03:47.364Z,8.13
2022-12-08T23:06:13.700Z,9.02
2022-12-08T23:08:39.966Z,8.23
2022-12-08T23:11:06.219Z,8.77
2022-12-08T23:13:32.365Z,9.50
2022-12-08T23:15:58.744Z,8.73
2022-12-08T23:18:24.893Z,8.75
2022-12-08T23:20:51.125Z,9.25
2022-12-08T23:23:17.271Z,9.50
2022-12-08T23:25:43.385Z,10.40
2022-12-08T23:28:09.706Z,8.30
2022-12-08T23:30:35.899Z,9.65
2022-12-08T23:33:02.207Z,11.15
2022-12-08T23:35:28.641Z,9.95
2022-12-08T23:37:54.784Z,11.35
2022-12-08T23:40:20.890Z,9.45
2022-12-08T23:42:47.101Z,10.07
2022-12-08T23:45:13.407Z,10.10
2022-12-08T23:47:39.550Z,9.23
2022-12-08T23:50:06.140Z,9.52
2022-12-08T23:52:32.671Z,9.88
2022-12-08T23:54:58.803Z,10.07
2022-12-08T23:57:24.924Z,10.10
2022-12-08T23:59:51.126Z,9.52
